createdAt,value
2019-05-30T00:00:43.027Z,0.00
2019-05-30T00:01:42.937Z,0.00
2019-05-30T00:02:42.839Z,0.00
2019-05-30T00:03:42.747Z,0.00
2019-05-30T00:04:42.653Z,0.00
2019-05-30T00:05:42.579Z,0.00
2019-05-30T00:06:42.534Z,0.00
2019-05-30T00:07:42.398Z,0.00
2019-05-30T00:08:42.311Z,0.00
2019-05-30T00:09:42.273Z,0.00
2019-05-30T00:10:42.113Z,0.00
2019-05-30T00:11:42.043Z,0.00
2019-05-30T00:12:41.944Z,0.00
2019-05-30T00:13:41.859Z,0.00
2019-05-30T00:14:41.767Z,0.00
2019-05-30T00:15:41.664Z,0.00
2019-05-30T00:16:41.589Z,0.00
2019-05-30T00:17:41.487Z,0.00
2019-05-30T00:18:41.385Z,0.00
2019-05-30T00:19:41.304Z,0.00
2019-05-30T00:20:41.213Z,0.00
2019-05-30T00:21:41.127Z,0.00
2019-05-30T00:22:41.031Z,0.00
2019-05-30T00:23:40.935Z,0.00
2019-05-30T00:24:40.879Z,0.00
2019-05-30T00:25:40.787Z,0.00
2019-05-30T00:26:40.672Z,0.00
2019-05-30T00:27:40.573Z,0.00
2019-05-30T00:28:40.485Z,0.00
2019-05-30T00:29:40.423Z,0.00
2019-05-30T00:30:40.311Z,0.00
2019-05-30T00:31:40.214Z,0.00
2019-05-30T00:32:40.122Z,0.00
2019-05-30T00:33:40.032Z,0.00
2019-05-30T00:34:39.956Z,0.00
2019-05-30T00:35:39.854Z,0.00
2019-05-30T00:36:39.762Z,0.00
2019-05-30T00:37:39.671Z,0.00
2019-05-30T00:38:39.588Z,0.00
2019-05-30T00:39:39.508Z,0.00
2019-05-30T00:40:39.414Z,0.00
2019-05-30T00:41:39.335Z,0.00
2019-05-30T00:42:39.226Z,0.00
2019-05-30T00:43:39.141Z,0.00
2019-05-30T00:44:39.063Z,0.00
2019-05-30T00:45:38.980Z,0.00
2019-05-30T00:46:38.870Z,0.00
2019-05-30T00:47:38.786Z,0.00
2019-05-30T00:48:38.686Z,0.00
2019-05-30T00:49:38.618Z,0.00
2019-05-30T00:50:38.524Z,0.00
2019-05-30T00:51:38.417Z,0.00
2019-05-30T00:52:38.323Z,0.00
2019-05-30T00:53:38.230Z,0.00
2019-05-30T00:54:38.148Z,0.00
2019-05-30T00:55:38.066Z,0.00
2019-05-30T00:56:37.964Z,0.00
2019-05-30T00:57:37.878Z,0.00
2019-05-30T00:58:37.782Z,0.00
2019-05-30T00:59:37.712Z,0.00
2019-05-30T01:00:43.155Z,0.00
2019-05-30T01:01:37.511Z,0.00
2019-05-30T01:02:37.428Z,0.00
2019-05-30T01:03:37.338Z,0.00
2019-05-30T01:04:37.248Z,0.00
2019-05-30T01:05:37.164Z,0.00
2019-05-30T01:06:37.068Z,0.00
2019-05-30T01:07:37.001Z,0.00
2019-05-30T01:08:36.890Z,0.00
2019-05-30T01:09:36.815Z,0.00
2019-05-30T01:10:36.721Z,0.00
2019-05-30T01:11:36.627Z,0.00
2019-05-30T01:12:36.544Z,0.00
2019-05-30T01:13:36.443Z,0.00
2019-05-30T01:14:36.352Z,0.00
2019-05-30T01:15:36.267Z,0.00
2019-05-30T01:16:36.172Z,0.00
2019-05-30T01:17:36.087Z,0.00
2019-05-30T01:18:35.997Z,0.00
2019-05-30T01:19:35.916Z,0.00
2019-05-30T01:20:35.832Z,0.00
2019-05-30T01:21:35.739Z,0.00
2019-05-30T01:22:35.658Z,0.00
2019-05-30T01:23:35.549Z,0.00
2019-05-30T01:24:35.453Z,0.00
2019-05-30T01:25:35.367Z,0.00
2019-05-30T01:26:35.282Z,0.00
2019-05-30T01:27:35.181Z,0.00
2019-05-30T01:28:35.107Z,0.00
2019-05-30T01:29:35.011Z,0.00
2019-05-30T01:30:34.919Z,0.00
2019-05-30T01:31:34.830Z,0.00
2019-05-30T01:32:34.738Z,0.00
2019-05-30T01:33:34.657Z,0.00
2019-05-30T01:34:34.576Z,0.00
2019-05-30T01:35:34.476Z,0.00
2019-05-30T01:36:34.383Z,0.00
2019-05-30T01:37:34.287Z,0.00
2019-05-30T01:38:34.206Z,0.00
2019-05-30T01:39:34.115Z,0.00
2019-05-30T01:40:34.025Z,0.00
2019-05-30T01:41:33.945Z,0.00
2019-05-30T01:42:33.845Z,0.00
2019-05-30T01:43:33.759Z,0.00
2019-05-30T01:44:33.674Z,0.00
2019-05-30T01:45:33.580Z,0.00
2019-05-30T01:46:33.483Z,0.00
2019-05-30T01:47:33.399Z,0.00
2019-05-30T01:48:33.314Z,0.00
2019-05-30T01:49:33.223Z,0.00
2019-05-30T01:50:33.135Z,0.00
2019-05-30T01:51:33.044Z,0.00
2019-05-30T01:52:32.961Z,0.00
2019-05-30T01:53:32.872Z,0.00
2019-05-30T01:54:32.794Z,0.00
2019-05-30T01:55:32.705Z,0.00
2019-05-30T01:56:32.601Z,0.00
2019-05-30T01:57:32.519Z,0.00
2019-05-30T01:58:32.427Z,0.00
2019-05-30T01:59:32.326Z,0.00
2019-05-30T02:00:32.233Z,0.00
2019-05-30T02:01:32.166Z,0.00
2019-05-30T02:02:32.060Z,0.00
2019-05-30T02:03:31.978Z,0.00
2019-05-30T02:04:31.883Z,0.00
2019-05-30T02:05:31.801Z,0.00
2019-05-30T02:06:31.706Z,0.00
2019-05-30T02:07:31.628Z,0.00
2019-05-30T02:08:31.525Z,0.00
2019-05-30T02:09:31.441Z,0.00
2019-05-30T02:10:31.345Z,0.00
2019-05-30T02:11:31.258Z,0.00
2019-05-30T02:12:31.170Z,0.00
2019-05-30T02:13:31.076Z,0.00
2019-05-30T02:14:30.996Z,0.00
2019-05-30T02:15:30.894Z,0.00
2019-05-30T02:16:30.818Z,0.00
2019-05-30T02:17:30.717Z,0.00
2019-05-30T02:18:30.627Z,0.00
2019-05-30T02:19:30.539Z,0.00
2019-05-30T02:20:30.478Z,0.00
2019-05-30T02:21:30.360Z,0.00
2019-05-30T02:22:30.292Z,0.00
2019-05-30T02:23:30.188Z,0.00
2019-05-30T02:24:30.094Z,0.00
2019-05-30T02:25:30.006Z,0.00
2019-05-30T02:26:29.914Z,0.00
2019-05-30T02:27:29.836Z,0.00
2019-05-30T02:28:29.741Z,0.00
2019-05-30T02:29:29.653Z,0.00
2019-05-30T02:30:29.559Z,0.00
2019-05-30T02:31:38.882Z,0.00
2019-05-30T02:32:29.399Z,0.00
2019-05-30T02:33:29.292Z,0.00
2019-05-30T02:34:29.205Z,4.00
2019-05-30T02:35:29.107Z,4.00
2019-05-30T02:36:29.043Z,4.00
2019-05-30T02:37:28.937Z,0.00
2019-05-30T02:38:28.851Z,4.00
2019-05-30T02:39:28.757Z,4.00
2019-05-30T02:40:28.674Z,4.00
2019-05-30T02:41:28.582Z,4.00
2019-05-30T02:42:28.487Z,4.00
2019-05-30T02:43:28.399Z,4.00
2019-05-30T02:44:28.301Z,4.00
2019-05-30T02:45:28.218Z,8.00
2019-05-30T02:46:28.159Z,8.00
2019-05-30T02:47:28.085Z,8.00
2019-05-30T02:48:27.947Z,8.00
2019-05-30T02:49:27.872Z,12.00
2019-05-30T02:50:27.784Z,12.00
2019-05-30T02:51:27.691Z,16.00
2019-05-30T02:52:27.844Z,16.00
2019-05-30T02:53:27.509Z,20.00
2019-05-30T02:54:27.414Z,24.00
2019-05-30T02:55:27.341Z,24.00
2019-05-30T02:56:27.276Z,28.00
2019-05-30T02:57:27.184Z,32.00
2019-05-30T02:58:27.062Z,32.00
2019-05-30T02:59:26.974Z,32.00
2019-05-30T03:00:26.884Z,40.00
2019-05-30T03:01:26.820Z,44.00
2019-05-30T03:02:26.698Z,44.00
2019-05-30T03:03:26.625Z,48.00
2019-05-30T03:04:26.541Z,56.00
2019-05-30T03:05:26.448Z,56.00
2019-05-30T03:06:26.351Z,60.00
2019-05-30T03:07:26.274Z,68.00
2019-05-30T03:08:26.171Z,72.00
2019-05-30T03:09:26.091Z,76.00
2019-05-30T03:10:25.995Z,84.00
2019-05-30T03:11:25.913Z,88.00
2019-05-30T03:12:25.825Z,96.00
2019-05-30T03:13:25.718Z,104.00
2019-05-30T03:14:25.634Z,112.00
2019-05-30T03:15:25.548Z,120.00
2019-05-30T03:16:25.464Z,128.00
2019-05-30T03:17:25.361Z,136.00
2019-05-30T03:18:25.275Z,148.00
2019-05-30T03:19:25.191Z,156.00
2019-05-30T03:20:25.156Z,164.00
2019-05-30T03:21:25.030Z,176.00
2019-05-30T03:22:24.926Z,180.00
2019-05-30T03:23:24.831Z,192.00
2019-05-30T03:24:24.749Z,204.00
2019-05-30T03:25:24.660Z,216.00
2019-05-30T03:26:24.564Z,224.00
2019-05-30T03:27:24.488Z,236.00
2019-05-30T03:28:24.423Z,248.00
2019-05-30T03:29:24.295Z,260.00
2019-05-30T03:30:28.308Z,272.00
2019-05-30T03:31:29.160Z,288.00
2019-05-30T03:33:02.657Z,304.00
2019-05-30T03:33:37.948Z,316.00
2019-05-30T03:34:28.560Z,332.00
2019-05-30T03:35:30.164Z,348.00
2019-05-30T03:36:29.599Z,364.00
2019-05-30T03:37:29.244Z,380.00
2019-05-30T03:38:23.491Z,396.00
2019-05-30T03:39:23.408Z,416.00
2019-05-30T03:40:25.227Z,428.00
2019-05-30T03:41:23.241Z,444.00
2019-05-30T03:42:23.145Z,460.00
2019-05-30T03:43:23.054Z,480.00
2019-05-30T03:44:22.977Z,492.00
2019-05-30T03:45:22.870Z,504.00
2019-05-30T03:46:22.782Z,524.00
2019-05-30T03:47:22.691Z,544.00
2019-05-30T03:48:22.606Z,556.00
2019-05-30T03:49:22.515Z,576.00
2019-05-30T03:50:22.423Z,592.00
2019-05-30T03:51:22.353Z,608.00
2019-05-30T03:52:22.261Z,628.00
2019-05-30T03:53:22.163Z,644.00
2019-05-30T03:54:22.078Z,664.00
2019-05-30T03:55:22.013Z,684.00
2019-05-30T03:56:21.908Z,704.00
2019-05-30T03:57:21.814Z,724.00
2019-05-30T03:58:21.758Z,740.00
2019-05-30T03:59:21.623Z,760.00
2019-05-30T04:00:21.539Z,784.00
2019-05-30T04:01:21.454Z,808.00
2019-05-30T04:02:21.359Z,832.00
2019-05-30T04:03:21.284Z,856.00
2019-05-30T04:04:21.178Z,872.00
2019-05-30T04:05:21.090Z,892.00
2019-05-30T04:06:21.003Z,912.00
2019-05-30T04:07:20.917Z,928.00
2019-05-30T04:08:20.823Z,948.00
2019-05-30T04:09:24.524Z,960.00
2019-05-30T04:10:20.662Z,972.00
2019-05-30T04:11:20.564Z,988.00
2019-05-30T04:12:20.473Z,1008.00
2019-05-30T04:13:20.381Z,1016.00
2019-05-30T04:14:20.312Z,1032.00
2019-05-30T04:15:20.208Z,1040.00
2019-05-30T04:16:20.132Z,1052.00
2019-05-30T04:17:20.136Z,1068.00
2019-05-30T04:18:19.942Z,1072.00
2019-05-30T04:19:20.200Z,1084.00
2019-05-30T04:20:22.545Z,1092.00
2019-05-30T04:21:21.665Z,1108.00
2019-05-30T04:22:19.751Z,1116.00
2019-05-30T04:23:19.714Z,1128.00
2019-05-30T04:24:19.811Z,1140.00
2019-05-30T04:25:19.326Z,1152.00
2019-05-30T04:26:19.255Z,1168.00
2019-05-30T04:27:19.133Z,1172.00
2019-05-30T04:28:19.094Z,1196.00
2019-05-30T04:29:19.127Z,1204.00
2019-05-30T04:30:18.872Z,1216.00
2019-05-30T04:31:19.409Z,1224.00
2019-05-30T04:32:18.823Z,1236.00
2019-05-30T04:33:31.641Z,1256.00
2019-05-30T04:34:19.590Z,1268.00
2019-05-30T04:35:18.855Z,1272.00
2019-05-30T04:36:19.128Z,1288.00
2019-05-30T04:37:19.033Z,1304.00
2019-05-30T04:38:19.517Z,1312.00
2019-05-30T04:39:19.163Z,1332.00
2019-05-30T04:40:19.564Z,1348.00
2019-05-30T04:41:19.208Z,1360.00
2019-05-30T04:42:18.832Z,1376.00
2019-05-30T04:43:18.431Z,1392.00
2019-05-30T04:44:18.182Z,1412.00
2019-05-30T04:45:18.091Z,1428.00
2019-05-30T04:46:19.523Z,1444.00
2019-05-30T04:47:18.455Z,1460.00
2019-05-30T04:48:18.586Z,1480.00
2019-05-30T04:49:19.093Z,1504.00
2019-05-30T04:50:18.824Z,1520.00
2019-05-30T04:51:18.989Z,1544.00
2019-05-30T04:52:21.121Z,1568.00
2019-05-30T04:53:18.301Z,1588.00
2019-05-30T04:54:18.495Z,1604.00
2019-05-30T04:55:18.488Z,1628.00
2019-05-30T04:56:17.618Z,1648.00
2019-05-30T04:57:16.920Z,1668.00
2019-05-30T04:58:18.025Z,1696.00
2019-05-30T04:59:17.504Z,1732.00
2019-05-30T05:00:17.126Z,1760.00
2019-05-30T05:01:17.706Z,1796.00
2019-05-30T05:02:18.147Z,1812.00
2019-05-30T05:03:17.446Z,1868.00
2019-05-30T05:04:17.566Z,1900.00
2019-05-30T05:05:20.917Z,1936.00
2019-05-30T05:06:15.900Z,1952.00
2019-05-30T05:07:15.727Z,1956.00
2019-05-30T05:08:15.934Z,1948.00
2019-05-30T05:09:16.087Z,1948.00
2019-05-30T05:10:16.052Z,1960.00
2019-05-30T05:11:18.637Z,1952.00
2019-05-30T05:12:16.135Z,1968.00
2019-05-30T05:13:16.283Z,1968.00
2019-05-30T05:14:16.274Z,1964.00
2019-05-30T05:15:16.320Z,1972.00
2019-05-30T05:16:29.416Z,1984.00
2019-05-30T05:17:14.795Z,2004.00
2019-05-30T05:18:15.019Z,2016.00
2019-05-30T05:19:14.923Z,2020.00
2019-05-30T05:20:15.252Z,2040.00
2019-05-30T05:21:14.726Z,2040.00
2019-05-30T05:22:14.850Z,2052.00
2019-05-30T05:23:15.076Z,2040.00
2019-05-30T05:24:15.287Z,2044.00
2019-05-30T05:25:15.313Z,2060.00
2019-05-30T05:26:13.925Z,2076.00
2019-05-30T05:27:13.836Z,2080.00
2019-05-30T05:28:13.768Z,2088.00
2019-05-30T05:29:13.975Z,2096.00
2019-05-30T05:30:13.990Z,2096.00
2019-05-30T05:31:14.407Z,2112.00
2019-05-30T05:32:14.083Z,2128.00
2019-05-30T05:33:14.561Z,2152.00
2019-05-30T05:34:14.409Z,2148.00
2019-05-30T05:35:13.130Z,2160.00
2019-05-30T05:36:13.052Z,2180.00
2019-05-30T05:37:12.961Z,2176.00
2019-05-30T05:38:12.868Z,2184.00
2019-05-30T05:39:12.786Z,2192.00
2019-05-30T05:40:12.692Z,2204.00
2019-05-30T05:41:12.615Z,2220.00
2019-05-30T05:42:12.521Z,2228.00
2019-05-30T05:43:12.440Z,2240.00
2019-05-30T05:44:12.347Z,2256.00
2019-05-30T05:45:12.262Z,2272.00
2019-05-30T05:46:12.177Z,2296.00
2019-05-30T05:47:12.092Z,2308.00
2019-05-30T05:48:12.002Z,2312.00
2019-05-30T05:49:11.914Z,2324.00
2019-05-30T05:50:11.823Z,2340.00
2019-05-30T05:51:11.743Z,2348.00
2019-05-30T05:52:12.211Z,2356.00
2019-05-30T05:53:11.558Z,2360.00
2019-05-30T05:54:11.475Z,2396.00
2019-05-30T05:55:11.392Z,2384.00
2019-05-30T05:56:11.299Z,2376.00
2019-05-30T05:57:11.217Z,2348.00
2019-05-30T05:58:11.135Z,2324.00
2019-05-30T05:59:11.037Z,2360.00
2019-05-30T06:00:10.955Z,2320.00
2019-05-30T06:01:10.870Z,2320.00
2019-05-30T06:02:10.780Z,2360.00
2019-05-30T06:03:10.693Z,2404.00
2019-05-30T06:04:13.516Z,2416.00
2019-05-30T06:05:10.513Z,2464.00
2019-05-30T06:06:10.434Z,2516.00
2019-05-30T06:07:10.357Z,2572.00
2019-05-30T06:08:10.251Z,2588.00
2019-05-30T06:09:10.169Z,2600.00
2019-05-30T06:10:10.097Z,2604.00
2019-05-30T06:11:10.014Z,2608.00
2019-05-30T06:12:09.903Z,2632.00
2019-05-30T06:13:09.817Z,2652.00
2019-05-30T06:14:09.754Z,2636.00
2019-05-30T06:15:09.653Z,2652.00
2019-05-30T06:16:09.559Z,2660.00
2019-05-30T06:17:09.473Z,2668.00
2019-05-30T06:18:09.381Z,2704.00
2019-05-30T06:19:09.293Z,2688.00
2019-05-30T06:20:09.210Z,2716.00
2019-05-30T06:21:09.137Z,2712.00
2019-05-30T06:22:09.044Z,2728.00
2019-05-30T06:23:08.955Z,2744.00
2019-05-30T06:24:08.872Z,2748.00
2019-05-30T06:25:08.794Z,2756.00
2019-05-30T06:26:08.708Z,2768.00
2019-05-30T06:27:08.615Z,2788.00
2019-05-30T06:28:08.518Z,2808.00
2019-05-30T06:29:08.433Z,2796.00
2019-05-30T06:30:08.355Z,2812.00
2019-05-30T06:31:08.265Z,2840.00
2019-05-30T06:32:08.185Z,2868.00
2019-05-30T06:33:08.097Z,2920.00
2019-05-30T06:34:07.999Z,2916.00
2019-05-30T06:35:07.910Z,2924.00
2019-05-30T06:36:07.822Z,2952.00
2019-05-30T06:37:07.741Z,3012.00
2019-05-30T06:38:07.662Z,3064.00
2019-05-30T06:39:07.589Z,3076.00
2019-05-30T06:40:07.498Z,3144.00
2019-05-30T06:41:07.391Z,3236.00
2019-05-30T06:42:07.313Z,3320.00
2019-05-30T06:43:07.234Z,3360.00
2019-05-30T06:44:07.163Z,3456.00
2019-05-30T06:45:07.065Z,3488.00
2019-05-30T06:46:06.961Z,3336.00
2019-05-30T06:47:06.871Z,3020.00
2019-05-30T06:48:06.791Z,3260.00
2019-05-30T06:49:06.709Z,2908.00
2019-05-30T06:50:06.624Z,2868.00
2019-05-30T06:51:06.584Z,2920.00
2019-05-30T06:52:06.447Z,2900.00
2019-05-30T06:53:06.356Z,2884.00
2019-05-30T06:54:06.285Z,2920.00
2019-05-30T06:55:06.199Z,2924.00
2019-05-30T06:56:06.096Z,2916.00
2019-05-30T06:57:06.017Z,2924.00
2019-05-30T06:58:05.924Z,2932.00
2019-05-30T06:59:05.836Z,2956.00
2019-05-30T07:00:05.758Z,2952.00
2019-05-30T07:01:05.671Z,2944.00
2019-05-30T07:02:05.611Z,2952.00
2019-05-30T07:03:05.661Z,2976.00
2019-05-30T07:04:05.803Z,3004.00
2019-05-30T07:05:05.912Z,3032.00
2019-05-30T07:06:05.773Z,3068.00
2019-05-30T07:07:06.070Z,3072.00
2019-05-30T07:08:05.062Z,3080.00
2019-05-30T07:09:05.008Z,3172.00
2019-05-30T07:10:04.900Z,3120.00
2019-05-30T07:11:04.813Z,3132.00
2019-05-30T07:12:04.722Z,3152.00
2019-05-30T07:13:04.638Z,3152.00
2019-05-30T07:14:04.566Z,3128.00
2019-05-30T07:15:04.485Z,3148.00
2019-05-30T07:16:04.390Z,3160.00
2019-05-30T07:17:04.306Z,3144.00
2019-05-30T07:18:04.216Z,3176.00
2019-05-30T07:19:04.143Z,3080.00
2019-05-30T07:20:04.039Z,3088.00
2019-05-30T07:21:03.959Z,3076.00
2019-05-30T07:22:03.888Z,3076.00
2019-05-30T07:23:03.799Z,3108.00
2019-05-30T07:24:03.708Z,3100.00
2019-05-30T07:25:03.636Z,3068.00
2019-05-30T07:26:03.839Z,3072.00
2019-05-30T07:27:03.456Z,3080.00
2019-05-30T07:28:03.357Z,3088.00
2019-05-30T07:29:03.289Z,3128.00
2019-05-30T07:30:03.204Z,3100.00
2019-05-30T07:31:03.107Z,3128.00
2019-05-30T07:32:03.017Z,3172.00
2019-05-30T07:33:02.928Z,3176.00
2019-05-30T07:34:02.847Z,3136.00
2019-05-30T07:35:06.804Z,3244.00
2019-05-30T07:36:02.701Z,3248.00
2019-05-30T07:37:02.585Z,3200.00
2019-05-30T07:38:02.499Z,3196.00
2019-05-30T07:39:02.423Z,3208.00
2019-05-30T07:40:02.353Z,3264.00
2019-05-30T07:41:02.256Z,3236.00
2019-05-30T07:42:06.187Z,3196.00
2019-05-30T07:43:02.089Z,3244.00
2019-05-30T07:44:01.991Z,3240.00
2019-05-30T07:45:01.928Z,3332.00
2019-05-30T07:46:01.827Z,3192.00
2019-05-30T07:47:01.730Z,3152.00
2019-05-30T07:48:01.649Z,3128.00
2019-05-30T07:49:01.580Z,3200.00
2019-05-30T07:50:01.493Z,3636.00
2019-05-30T07:51:01.405Z,3344.00
2019-05-30T07:52:01.313Z,3568.00
2019-05-30T07:53:01.216Z,3740.00
2019-05-30T07:54:01.133Z,3700.00
2019-05-30T07:55:01.048Z,3788.00
2019-05-30T07:56:00.996Z,3488.00
2019-05-30T07:57:00.949Z,3440.00
2019-05-30T07:58:00.813Z,3440.00
2019-05-30T07:59:00.719Z,3748.00
2019-05-30T08:00:00.630Z,3992.00
2019-05-30T08:01:00.568Z,3624.00
2019-05-30T08:02:00.453Z,3360.00
2019-05-30T08:03:00.378Z,3360.00
2019-05-30T08:04:00.288Z,3656.00
2019-05-30T08:05:00.209Z,3736.00
2019-05-30T08:06:00.111Z,3504.00
2019-05-30T08:07:00.034Z,3508.00
2019-05-30T08:07:59.962Z,3288.00
2019-05-30T08:08:59.865Z,3132.00
2019-05-30T08:09:59.779Z,3244.00
2019-05-30T08:11:08.796Z,3272.00
2019-05-30T08:11:59.602Z,3576.00
2019-05-30T08:12:59.527Z,3608.00
2019-05-30T08:13:59.450Z,3720.00
2019-05-30T08:14:59.347Z,3616.00
2019-05-30T08:15:59.270Z,3352.00
2019-05-30T08:16:59.181Z,3276.00
2019-05-30T08:17:59.115Z,3072.00
2019-05-30T08:18:59.011Z,3452.00
2019-05-30T08:19:58.982Z,3104.00
2019-05-30T08:20:58.840Z,3072.00
2019-05-30T08:21:58.756Z,3828.00
2019-05-30T08:22:58.664Z,3756.00
2019-05-30T08:23:58.598Z,4308.00
2019-05-30T08:24:58.500Z,4336.00
2019-05-30T08:25:58.415Z,4040.00
2019-05-30T08:26:58.334Z,4312.00
2019-05-30T08:27:58.262Z,4484.00
2019-05-30T08:28:58.161Z,4308.00
2019-05-30T08:29:58.080Z,4536.00
2019-05-30T08:30:57.993Z,4528.00
2019-05-30T08:31:57.911Z,4316.00
2019-05-30T08:32:57.826Z,4652.00
2019-05-30T08:33:57.738Z,4692.00
2019-05-30T08:34:57.653Z,4692.00
2019-05-30T08:35:57.578Z,5040.00
2019-05-30T08:36:57.480Z,4476.00
2019-05-30T08:37:57.396Z,4504.00
2019-05-30T08:38:57.310Z,4048.00
2019-05-30T08:39:57.224Z,4116.00
2019-05-30T08:40:57.142Z,3528.00
2019-05-30T08:41:57.056Z,3640.00
2019-05-30T08:42:56.987Z,3744.00
2019-05-30T08:43:56.904Z,3736.00
2019-05-30T08:44:56.818Z,3764.00
2019-05-30T08:45:56.718Z,3732.00
2019-05-30T08:46:56.631Z,3688.00
2019-05-30T08:47:56.556Z,3840.00
2019-05-30T08:48:56.462Z,4196.00
2019-05-30T08:49:56.384Z,3992.00
2019-05-30T08:50:56.303Z,4664.00
2019-05-30T08:51:56.212Z,5524.00
2019-05-30T08:52:56.127Z,5328.00
2019-05-30T08:53:56.040Z,5556.00
2019-05-30T08:54:55.957Z,5216.00
2019-05-30T08:55:55.872Z,5864.00
2019-05-30T08:56:55.797Z,5864.00
2019-05-30T08:57:55.704Z,5368.00
2019-05-30T08:58:55.618Z,5084.00
2019-05-30T08:59:55.545Z,5464.00
2019-05-30T09:00:55.484Z,4888.00
2019-05-30T09:01:55.412Z,5460.00
2019-05-30T09:02:55.283Z,5776.00
2019-05-30T09:03:55.199Z,5412.00
2019-05-30T09:04:55.115Z,6156.00
2019-05-30T09:06:03.357Z,5944.00
2019-05-30T09:06:54.960Z,6244.00
2019-05-30T09:07:54.864Z,6200.00
2019-05-30T09:08:54.781Z,6080.00
2019-05-30T09:09:54.713Z,4392.00
2019-05-30T09:10:54.616Z,3988.00
2019-05-30T09:11:54.523Z,4060.00
2019-05-30T09:12:54.439Z,5108.00
2019-05-30T09:13:54.358Z,4740.00
2019-05-30T09:14:54.289Z,5216.00
2019-05-30T09:15:54.203Z,5756.00
2019-05-30T09:16:55.137Z,6156.00
2019-05-30T09:17:54.027Z,6300.00
2019-05-30T09:18:53.940Z,5868.00
2019-05-30T09:19:53.859Z,4864.00
2019-05-30T09:20:53.774Z,4904.00
2019-05-30T09:21:53.701Z,4880.00
2019-05-30T09:22:53.603Z,4660.00
2019-05-30T09:23:56.900Z,5804.00
2019-05-30T09:24:53.439Z,5932.00
2019-05-30T09:25:53.349Z,5536.00
2019-05-30T09:26:53.265Z,5560.00
2019-05-30T09:27:53.189Z,5756.00
2019-05-30T09:28:53.121Z,4936.00
2019-05-30T09:29:53.027Z,4612.00
2019-05-30T09:30:52.932Z,4392.00
2019-05-30T09:31:52.851Z,4212.00
2019-05-30T09:32:52.795Z,4180.00
2019-05-30T09:33:52.687Z,4120.00
2019-05-30T09:34:52.607Z,3992.00
2019-05-30T09:35:52.519Z,3956.00
2019-05-30T09:36:52.434Z,3972.00
2019-05-30T09:37:52.356Z,3956.00
2019-05-30T09:38:52.265Z,3980.00
2019-05-30T09:39:52.197Z,3852.00
2019-05-30T09:40:52.097Z,3800.00
2019-05-30T09:41:52.025Z,3856.00
2019-05-30T09:42:51.932Z,3728.00
2019-05-30T09:43:51.853Z,3624.00
2019-05-30T09:44:52.203Z,3520.00
2019-05-30T09:45:51.685Z,3460.00
2019-05-30T09:46:51.609Z,3444.00
2019-05-30T09:47:51.513Z,3440.00
2019-05-30T09:48:51.853Z,3416.00
2019-05-30T09:49:51.482Z,3364.00
2019-05-30T09:50:51.278Z,3352.00
2019-05-30T09:51:51.201Z,3356.00
2019-05-30T09:52:51.433Z,3392.00
2019-05-30T09:53:51.056Z,3420.00
2019-05-30T09:54:50.944Z,3460.00
2019-05-30T09:55:51.576Z,3496.00
2019-05-30T09:56:51.362Z,3528.00
2019-05-30T09:57:51.669Z,3560.00
2019-05-30T09:58:51.764Z,3620.00
2019-05-30T09:59:50.542Z,3696.00
2019-05-30T10:00:50.541Z,3792.00
2019-05-30T10:01:50.344Z,3896.00
2019-05-30T10:02:50.621Z,3916.00
2019-05-30T10:03:50.244Z,3920.00
2019-05-30T10:04:50.437Z,3904.00
2019-05-30T10:05:50.581Z,3880.00
2019-05-30T10:06:50.530Z,3896.00
2019-05-30T10:07:50.818Z,3880.00
2019-05-30T10:08:51.098Z,3828.00
2019-05-30T10:09:50.903Z,3784.00
2019-05-30T10:10:49.661Z,3760.00
2019-05-30T10:11:49.514Z,3784.00
2019-05-30T10:12:50.349Z,3836.00
2019-05-30T10:13:51.150Z,3920.00
2019-05-30T10:14:49.637Z,4144.00
2019-05-30T10:15:50.437Z,4216.00
2019-05-30T10:16:54.361Z,4108.00
2019-05-30T10:17:50.121Z,3960.00
2019-05-30T10:18:49.188Z,4020.00
2019-05-30T10:19:48.847Z,4000.00
2019-05-30T10:20:49.443Z,3948.00
2019-05-30T10:21:49.020Z,3896.00
2019-05-30T10:22:50.454Z,3860.00
2019-05-30T10:23:49.440Z,3848.00
2019-05-30T10:24:49.068Z,3840.00
2019-05-30T10:25:49.475Z,3840.00
2019-05-30T10:26:49.001Z,3860.00
2019-05-30T10:27:49.077Z,3864.00
2019-05-30T10:28:49.430Z,3860.00
2019-05-30T10:29:49.400Z,3852.00
2019-05-30T10:30:52.353Z,3816.00
2019-05-30T10:31:48.312Z,3768.00
2019-05-30T10:32:49.016Z,3704.00
2019-05-30T10:33:49.195Z,3620.00
2019-05-30T10:34:48.018Z,3544.00
2019-05-30T10:35:49.032Z,3476.00
2019-05-30T10:36:48.854Z,3396.00
2019-05-30T10:37:48.894Z,3328.00
2019-05-30T10:38:48.553Z,3256.00
2019-05-30T10:39:47.372Z,3200.00
2019-05-30T10:40:48.621Z,3152.00
2019-05-30T10:41:47.579Z,3132.00
2019-05-30T10:42:47.798Z,3100.00
2019-05-30T10:43:47.441Z,3060.00
2019-05-30T10:44:48.321Z,3016.00
2019-05-30T10:45:47.960Z,2956.00
2019-05-30T10:46:47.558Z,2904.00
2019-05-30T10:47:47.529Z,2860.00
2019-05-30T10:48:47.473Z,2856.00
2019-05-30T10:49:48.019Z,2880.00
2019-05-30T10:50:48.271Z,2928.00
2019-05-30T10:51:47.540Z,2988.00
2019-05-30T10:52:47.133Z,3036.00
2019-05-30T10:53:47.381Z,3052.00
2019-05-30T10:54:46.710Z,3056.00
2019-05-30T10:55:46.942Z,3068.00
2019-05-30T10:56:47.056Z,3112.00
2019-05-30T10:57:47.010Z,3136.00
2019-05-30T10:58:46.699Z,3156.00
2019-05-30T10:59:45.943Z,3164.00
2019-05-30T11:00:45.768Z,3156.00
2019-05-30T11:01:46.570Z,3152.00
2019-05-30T11:02:46.035Z,3132.00
2019-05-30T11:03:45.844Z,3144.00
2019-05-30T11:04:45.953Z,3140.00
2019-05-30T11:05:47.071Z,3152.00
2019-05-30T11:07:01.544Z,3136.00
2019-05-30T11:07:54.790Z,3116.00
2019-05-30T11:08:44.762Z,3116.00
2019-05-30T11:09:44.711Z,3120.00
2019-05-30T11:10:44.597Z,3148.00
2019-05-30T11:11:44.537Z,3196.00
2019-05-30T11:12:44.422Z,3268.00
2019-05-30T11:13:44.347Z,3328.00
2019-05-30T11:14:44.256Z,3364.00
2019-05-30T11:15:44.276Z,3424.00
2019-05-30T11:16:44.102Z,3508.00
2019-05-30T11:17:44.118Z,3620.00
2019-05-30T11:18:43.917Z,3712.00
2019-05-30T11:19:44.056Z,3760.00
2019-05-30T11:20:43.756Z,3764.00
2019-05-30T11:21:43.698Z,3752.00
2019-05-30T11:22:43.584Z,3760.00
2019-05-30T11:23:43.500Z,3764.00
2019-05-30T11:24:43.424Z,3760.00
2019-05-30T11:25:43.342Z,3744.00
2019-05-30T11:26:43.257Z,3728.00
2019-05-30T11:27:43.173Z,3792.00
2019-05-30T11:28:43.086Z,3684.00
2019-05-30T11:29:42.998Z,3592.00
2019-05-30T11:30:42.909Z,3480.00
2019-05-30T11:31:42.834Z,3396.00
2019-05-30T11:32:42.962Z,3324.00
2019-05-30T11:33:42.686Z,3240.00
2019-05-30T11:34:42.575Z,3148.00
2019-05-30T11:35:42.504Z,3064.00
2019-05-30T11:36:42.431Z,2980.00
2019-05-30T11:37:42.343Z,2904.00
2019-05-30T11:38:42.248Z,2840.00
2019-05-30T11:39:42.161Z,2768.00
2019-05-30T11:40:42.076Z,2688.00
2019-05-30T11:41:41.996Z,2628.00
2019-05-30T11:42:41.927Z,2580.00
2019-05-30T11:43:41.863Z,2536.00
2019-05-30T11:44:41.782Z,2500.00
2019-05-30T11:45:41.670Z,2468.00
2019-05-30T11:46:41.574Z,2452.00
2019-05-30T11:47:41.524Z,2440.00
2019-05-30T11:48:41.427Z,2424.00
2019-05-30T11:49:41.335Z,2424.00
2019-05-30T11:50:41.244Z,2444.00
2019-05-30T11:51:41.177Z,2460.00
2019-05-30T11:52:41.078Z,2500.00
2019-05-30T11:53:40.986Z,2544.00
2019-05-30T11:54:40.929Z,2600.00
2019-05-30T11:55:40.826Z,2644.00
2019-05-30T11:56:40.741Z,2648.00
2019-05-30T11:57:40.654Z,2600.00
2019-05-30T11:58:40.562Z,2524.00
2019-05-30T11:59:40.497Z,2460.00
2019-05-30T12:00:40.425Z,2400.00
2019-05-30T12:01:40.326Z,2368.00
2019-05-30T12:02:40.242Z,2344.00
2019-05-30T12:03:40.156Z,2352.00
2019-05-30T12:04:40.077Z,2364.00
2019-05-30T12:05:39.992Z,2372.00
2019-05-30T12:06:39.917Z,2396.00
2019-05-30T12:07:39.814Z,2404.00
2019-05-30T12:08:39.737Z,2408.00
2019-05-30T12:09:39.642Z,2420.00
2019-05-30T12:10:39.561Z,2488.00
2019-05-30T12:11:39.481Z,2572.00
2019-05-30T12:12:39.397Z,2652.00
2019-05-30T12:13:39.319Z,2720.00
2019-05-30T12:14:40.214Z,2744.00
2019-05-30T12:15:39.149Z,2748.00
2019-05-30T12:16:39.048Z,2776.00
2019-05-30T12:17:38.979Z,2764.00
2019-05-30T12:18:38.898Z,2728.00
2019-05-30T12:19:38.801Z,2680.00
2019-05-30T12:20:38.719Z,2612.00
2019-05-30T12:21:38.635Z,2572.00
2019-05-30T12:22:38.545Z,2544.00
2019-05-30T12:23:38.462Z,2524.00